Time;durP1;ratioP1;P1;durP2;ratioP2;P2;SDS_P1;SDS_P2;PMS_P1;PMS_P2;Temp;Humidity;BMP_temperature;BMP_pressure;BME280_temperature;BME280_humidity;BME280_pressure;Samples;Min_cycle;Max_cycle;Signal;HPM_P1;HPM_P2
2022/11/11 00:00:17;;;;;;;4.90;3.13;;;4.20;99.90;;;;;;5064942;28;20458;-82
2022/11/11 00:02:44;;;;;;;3.27;2.97;;;4.30;99.90;;;;;;5070466;28;20483;-82
2022/11/11 00:05:12;;;;;;;4.87;3.20;;;4.30;99.90;;;;;;5065897;28;20494;-82
2022/11/11 00:07:40;;;;;;;3.97;3.50;;;4.20;99.90;;;;;;5081120;28;20540;-82
2022/11/11 00:10:08;;;;;;;4.67;2.77;;;4.10;99.90;;;;;;5084887;28;20502;-82
2022/11/11 00:12:35;;;;;;;3.93;3.60;;;4.10;99.90;;;;;;5069121;28;20460;-82
2022/11/11 00:15:02;;;;;;;10.60;3.63;;;4.00;99.90;;;;;;5076169;28;20973;-82
2022/11/11 00:25:43;;;;;;;9.73;5.90;;;4.20;99.90;;;;;;5070696;28;21196;-82
2022/11/11 00:28:10;;;;;;;7.80;4.87;;;4.20;99.90;;;;;;5071477;28;20514;-82
2022/11/11 00:30:38;;;;;;;5.67;4.50;;;4.20;99.90;;;;;;5067538;28;20871;-82
2022/11/11 00:33:05;;;;;;;5.80;4.70;;;4.30;99.90;;;;;;5085983;28;20475;-82
2022/11/11 00:40:59;;;;;;;5.23;4.37;;;4.20;99.90;;;;;;5085080;28;20445;-82
2022/11/11 00:43:26;;;;;;;8.47;4.80;;;4.10;99.90;;;;;;5081681;28;20970;-82
2022/11/11 00:45:53;;;;;;;13.53;6.43;;;4.00;99.90;;;;;;5085887;28;20535;-82
2022/11/11 00:51:04;;;;;;;38.10;9.40;;;4.00;99.90;;;;;;5085334;28;20445;-82
2022/11/11 00:53:34;;;;;;;98.77;20.57;;;4.00;99.90;;;;;;5071888;28;20548;-82
2022/11/11 00:56:01;;;;;;;147.67;23.33;;;4.00;99.90;;;;;;5085599;28;21041;-82
2022/11/11 00:58:28;;;;;;;43.23;11.27;;;4.00;99.90;;;;;;5076303;28;20493;-82
2022/11/11 01:00:55;;;;;;;119.90;25.10;;;4.10;99.90;;;;;;5087121;28;20455;-82
2022/11/11 01:03:23;;;;;;;162.27;30.20;;;4.20;99.90;;;;;;5085881;28;20579;-82
2022/11/11 01:05:50;;;;;;;96.30;20.73;;;4.20;99.90;;;;;;5087775;28;20489;-82
2022/11/11 01:08:17;;;;;;;68.07;12.93;;;4.10;99.90;;;;;;5082751;28;20450;-82
2022/11/11 01:10:47;;;;;;;74.83;13.50;;;4.10;99.90;;;;;;5090228;28;20950;-82
2022/11/11 01:13:16;;;;;;;50.53;7.80;;;4.10;99.90;;;;;;5095120;28;20500;-81
2022/11/11 01:15:46;;;;;;;52.83;10.37;;;4.00;99.90;;;;;;5093141;28;20458;-82
2022/11/11 01:18:15;;;;;;;33.37;8.23;;;4.00;99.90;;;;;;5086434;28;20532;-82
2022/11/11 01:20:43;;;;;;;24.60;5.83;;;4.00;99.90;;;;;;5086510;28;20599;-82
2022/11/11 01:23:12;;;;;;;15.97;6.60;;;4.00;99.90;;;;;;5085661;28;20512;-82
2022/11/11 01:25:41;;;;;;;72.87;11.10;;;4.00;99.90;;;;;;5070873;28;20953;-82
2022/11/11 01:28:09;;;;;;;68.90;12.57;;;4.00;99.90;;;;;;5083366;28;20482;-82
2022/11/11 01:30:37;;;;;;;47.50;9.43;;;4.00;99.90;;;;;;5078700;28;20450;-82
2022/11/11 01:33:04;;;;;;;28.80;8.50;;;3.90;99.90;;;;;;5081235;28;20549;-82
2022/11/11 01:35:32;;;;;;;44.63;9.57;;;4.00;99.90;;;;;;5085118;28;20529;-82
2022/11/11 01:37:59;;;;;;;34.97;6.47;;;4.00;99.90;;;;;;5070344;28;20489;-82
2022/11/11 01:40:26;;;;;;;20.37;5.23;;;4.00;99.90;;;;;;5071559;28;20444;-82
2022/11/11 01:43:13;;;;;;;39.03;8.33;;;4.00;99.90;;;;;;5077797;28;20568;-82
2022/11/11 01:45:53;;;;;;;64.03;10.50;;;4.00;99.90;;;;;;5074745;28;20507;-82
2022/11/11 01:51:17;;;;;;;24.30;5.47;;;4.00;99.90;;;;;;5069563;28;20444;-82
2022/11/11 01:53:45;;;;;;;10.83;5.07;;;4.00;99.90;;;;;;5081848;28;20494;-82
2022/11/11 01:56:12;;;;;;;37.23;6.93;;;3.90;99.90;;;;;;5066702;28;20887;-82
2022/11/11 01:58:39;;;;;;;36.43;6.50;;;3.90;99.90;;;;;;5062598;28;20460;-82
2022/11/11 02:01:08;;;;;;;24.47;4.63;;;3.70;99.90;;;;;;5063939;28;20929;-82
2022/11/11 02:03:40;;;;;;;16.53;3.70;;;3.60;99.90;;;;;;5062782;28;20507;-83
2022/11/11 02:06:06;;;;;;;15.13;4.67;;;3.60;99.90;;;;;;5071438;28;20526;-82
2022/11/11 02:08:36;;;;;;;18.43;3.50;;;3.60;99.90;;;;;;5072953;28;20974;-82
2022/11/11 02:11:06;;;;;;;10.40;3.23;;;3.60;99.90;;;;;;5073534;28;20566;-82
2022/11/11 02:16:19;;;;;;;42.03;8.77;;;3.80;99.90;;;;;;5062906;28;20458;-83
2022/11/11 02:18:46;;;;;;;20.20;4.70;;;3.90;99.90;;;;;;5065266;28;20478;-82
2022/11/11 02:21:19;;;;;;;28.73;8.20;;;3.90;99.90;;;;;;5069079;28;20495;-82
2022/11/11 02:23:55;;;;;;;9.70;4.30;;;3.90;99.90;;;;;;5071903;28;20570;-82
2022/11/11 02:26:23;;;;;;;19.20;7.30;;;3.90;99.90;;;;;;5069974;28;20502;-82
2022/11/11 02:28:51;;;;;;;20.47;7.67;;;3.80;99.90;;;;;;5068790;28;20572;-82
2022/11/11 02:31:18;;;;;;;27.70;8.13;;;3.80;99.90;;;;;;5073568;28;20525;-82
2022/11/11 02:33:45;;;;;;;24.07;5.17;;;3.70;99.90;;;;;;5074977;28;20884;-82
2022/11/11 02:36:15;;;;;;;20.00;4.80;;;3.60;99.90;;;;;;5083003;28;20948;-82
2022/11/11 02:38:44;;;;;;;14.40;6.47;;;3.60;99.90;;;;;;5081727;28;20443;-82
2022/11/11 02:43:56;;;;;;;40.87;6.70;;;3.50;99.90;;;;;;5084626;28;20501;-82
2022/11/11 02:46:23;;;;;;;24.90;5.97;;;3.50;99.90;;;;;;5081459;28;20562;-82
2022/11/11 02:48:50;;;;;;;12.40;5.33;;;3.40;99.90;;;;;;5080257;28;20525;-82
2022/11/11 02:51:18;;;;;;;11.47;4.20;;;3.40;99.90;;;;;;5081525;28;20500;-82
2022/11/11 02:53:44;;;;;;;9.93;4.90;;;3.30;99.90;;;;;;5084268;28;20443;-82
2022/11/11 02:57:05;;;;;;;13.70;4.37;;;3.40;99.90;;;;;;5082764;28;20475;-82
2022/11/11 02:59:00;;;;;;;8.60;4.43;;;3.30;99.90;;;;;;5072646;28;20459;-82
2022/11/11 03:01:27;;;;;;;19.87;6.37;;;3.30;99.90;;;;;;5079531;28;20459;-82
2022/11/11 03:03:54;;;;;;;6.40;3.83;;;3.30;99.90;;;;;;5077591;28;20536;-82
2022/11/11 03:06:21;;;;;;;10.43;4.07;;;3.30;99.90;;;;;;5077618;28;21187;-82
2022/11/11 03:08:48;;;;;;;13.03;4.50;;;3.20;99.90;;;;;;5084941;28;20457;-82
2022/11/11 03:11:26;;;;;;;11.90;5.13;;;3.10;99.90;;;;;;5082503;28;20520;-82
2022/11/11 03:13:53;;;;;;;6.77;2.80;;;3.00;99.90;;;;;;5077761;28;20463;-81
2022/11/11 03:19:02;;;;;;;2.03;1.67;;;3.20;99.90;;;;;;5079539;28;20434;-82
2022/11/11 03:21:27;;;;;;;50.57;7.40;;;3.10;99.90;;;;;;5081982;28;20454;-81
2022/11/11 03:23:55;;;;;;;2.20;1.73;;;3.10;99.90;;;;;;5073459;28;20970;-81
2022/11/11 03:26:23;;;;;;;19.73;3.00;;;3.10;99.90;;;;;;5075908;28;20466;-81
2022/11/11 03:28:50;;;;;;;5.63;2.17;;;3.10;99.90;;;;;;5079189;28;20486;-81
2022/11/11 03:31:17;;;;;;;15.70;2.80;;;3.00;99.90;;;;;;5075422;28;20520;-81
2022/11/11 03:33:44;;;;;;;10.43;3.90;;;3.00;99.90;;;;;;5076392;28;20515;-81
2022/11/11 03:36:11;;;;;;;37.23;5.70;;;3.00;99.90;;;;;;5082844;28;20462;-81
2022/11/11 03:38:37;;;;;;;65.33;11.10;;;3.00;99.90;;;;;;5078082;28;20942;-81
2022/11/11 03:41:04;;;;;;;71.20;13.00;;;2.90;99.90;;;;;;5073296;28;20474;-81
2022/11/11 03:43:35;;;;;;;26.23;3.00;;;2.70;99.90;;;;;;5075660;28;20503;-81
2022/11/11 03:46:04;;;;;;;6.23;2.10;;;2.60;99.90;;;;;;5071597;28;20554;-81
2022/11/11 03:48:33;;;;;;;7.70;2.10;;;2.60;99.90;;;;;;5066328;28;20689;-81
2022/11/11 03:50:59;;;;;;;18.17;3.33;;;2.60;99.90;;;;;;5078792;28;20519;-81
2022/11/11 03:53:26;;;;;;;15.57;3.53;;;2.50;99.90;;;;;;5071438;28;20472;-82
2022/11/11 03:55:53;;;;;;;20.57;4.87;;;2.40;99.90;;;;;;5063709;28;20501;-82
2022/11/11 03:58:20;;;;;;;8.80;2.30;;;2.40;99.90;;;;;;5063309;28;20470;-81
2022/11/11 04:00:49;;;;;;;36.93;4.67;;;2.30;99.90;;;;;;5082844;28;20458;-81
2022/11/11 04:11:33;;;;;;;108.13;18.73;;;2.50;99.90;;;;;;5076771;28;20478;-82
2022/11/11 04:16:50;;;;;;;28.27;5.43;;;2.50;99.90;;;;;;5079100;28;20980;-81
2022/11/11 04:21:58;;;;;;;18.63;5.07;;;2.60;99.90;;;;;;5055318;28;20969;-81
2022/11/11 04:27:11;;;;;;;48.97;15.53;;;2.70;99.90;;;;;;5083691;28;20441;-81
2022/11/11 04:29:38;;;;;;;20.67;4.70;;;2.80;99.90;;;;;;5080421;28;20901;-81
2022/11/11 04:34:54;;;;;;;20.40;7.00;;;2.80;99.90;;;;;;5082310;28;20463;-81
2022/11/11 04:37:23;;;;;;;22.33;8.57;;;2.60;99.90;;;;;;5075831;28;20496;-81
2022/11/11 04:42:35;;;;;;;4.13;2.03;;;2.60;99.90;;;;;;5081858;28;20453;-81
2022/11/11 04:47:57;;;;;;;2.30;1.93;;;2.60;99.90;;;;;;5074721;28;20454;-81
2022/11/11 04:50:26;;;;;;;1.43;1.07;;;2.60;99.90;;;;;;5081508;28;20471;-82
2022/11/11 04:52:54;;;;;;;2.10;1.27;;;2.60;99.90;;;;;;5076465;28;20464;-81
2022/11/11 04:58:05;;;;;;;10.70;3.53;;;2.40;99.90;;;;;;5073360;28;20481;-81
2022/11/11 05:00:33;;;;;;;17.03;2.37;;;2.50;99.90;;;;;;5074420;28;20470;-81
2022/11/11 05:03:15;;;;;;;9.40;5.30;;;2.50;99.90;;;;;;5084824;28;20490;-81
2022/11/11 05:11:12;;;;;;;1.73;1.10;;;2.40;99.90;;;;;;5086392;28;21111;-81
2022/11/11 05:22:07;;;;;;;6.77;1.10;;;2.30;99.90;;;;;;5089818;28;20486;-81
2022/11/11 05:27:19;;;;;;;24.90;4.90;;;2.30;99.90;;;;;;5079826;28;20457;-81
2022/11/11 05:29:47;;;;;;;21.87;7.87;;;2.30;99.90;;;;;;5076244;28;20488;-81
2022/11/11 05:32:18;;;;;;;23.77;7.27;;;2.20;99.90;;;;;;5078529;28;20922;-81
2022/11/11 05:34:46;;;;;;;17.37;3.10;;;2.10;99.90;;;;;;5082188;28;20470;-81
2022/11/11 05:37:14;;;;;;;12.33;2.20;;;2.00;99.90;;;;;;5084040;28;20489;-81
2022/11/11 05:39:41;;;;;;;5.77;3.00;;;2.00;99.90;;;;;;5077962;28;20487;-82
2022/11/11 05:42:08;;;;;;;7.50;3.10;;;1.90;99.90;;;;;;5080771;28;20931;-84
2022/11/11 05:44:35;;;;;;;18.33;6.63;;;1.80;99.90;;;;;;5080502;28;20478;-83
2022/11/11 05:47:02;;;;;;;16.60;5.80;;;1.80;99.90;;;;;;5081366;28;20551;-82
2022/11/11 05:49:29;;;;;;;20.97;8.00;;;1.90;99.90;;;;;;5079471;28;20488;-81
2022/11/11 05:51:58;;;;;;;21.43;8.43;;;2.00;99.90;;;;;;5077920;28;20554;-81
2022/11/11 05:54:25;;;;;;;15.83;7.37;;;2.00;99.90;;;;;;5075994;28;20535;-81
2022/11/11 05:56:52;;;;;;;47.87;11.73;;;2.10;99.90;;;;;;5077517;28;20464;-81
2022/11/11 05:59:19;;;;;;;52.57;14.80;;;2.20;99.90;;;;;;5081642;28;20455;-81
2022/11/11 06:01:46;;;;;;;29.03;10.40;;;2.20;99.90;;;;;;5086329;28;20946;-80
2022/11/11 06:04:13;;;;;;;35.47;11.50;;;2.30;99.90;;;;;;5081488;28;20554;-80
2022/11/11 06:06:40;;;;;;;28.67;9.80;;;2.50;99.90;;;;;;5083883;28;20520;-81
2022/11/11 06:09:09;;;;;;;34.73;13.37;;;2.50;99.90;;;;;;5083802;28;20903;-80
2022/11/11 06:11:35;;;;;;;54.60;13.90;;;2.60;99.90;;;;;;5076953;28;20463;-80
2022/11/11 06:14:02;;;;;;;37.67;11.87;;;2.70;99.90;;;;;;5065444;28;20484;-80
2022/11/11 06:16:29;;;;;;;109.40;23.40;;;2.70;99.90;;;;;;5070707;28;20517;-80
2022/11/11 06:18:57;;;;;;;100.67;20.67;;;2.80;99.90;;;;;;5071838;28;20551;-80
2022/11/11 06:21:25;;;;;;;74.20;19.30;;;2.80;99.90;;;;;;5067859;28;20483;-81
2022/11/11 06:23:52;;;;;;;81.17;16.33;;;2.90;99.90;;;;;;5071887;28;20913;-81
2022/11/11 06:26:20;;;;;;;56.10;14.10;;;3.10;99.90;;;;;;5075694;28;20463;-81
2022/11/11 06:28:49;;;;;;;49.00;13.27;;;3.10;99.90;;;;;;5066636;28;20491;-81
2022/11/11 06:31:18;;;;;;;30.20;10.30;;;3.20;99.90;;;;;;5075487;28;20506;-81
2022/11/11 06:33:45;;;;;;;77.53;19.23;;;3.20;99.90;;;;;;5078451;28;20471;-81
2022/11/11 06:36:14;;;;;;;67.03;14.60;;;3.20;99.90;;;;;;5065292;28;20456;-81
2022/11/11 06:38:41;;;;;;;73.10;15.40;;;3.30;99.90;;;;;;5065217;28;20491;-81
2022/11/11 06:41:11;;;;;;;57.37;16.83;;;3.30;99.90;;;;;;5069740;28;20459;-83
2022/11/11 06:43:40;;;;;;;63.50;16.23;;;3.30;99.90;;;;;;5071969;28;20467;-83
2022/11/11 06:46:10;;;;;;;78.57;21.70;;;3.50;99.90;;;;;;5063605;28;20494;-81
2022/11/11 06:48:41;;;;;;;87.73;21.30;;;3.60;99.90;;;;;;5063319;28;20475;-82
2022/11/11 06:51:09;;;;;;;151.57;31.47;;;3.60;99.90;;;;;;5071861;28;20464;-84
2022/11/11 06:53:36;;;;;;;166.67;32.67;;;3.70;99.90;;;;;;5075525;28;20487;-81
2022/11/11 06:56:03;;;;;;;61.97;27.07;;;3.60;99.90;;;;;;5072777;28;20924;-84
2022/11/11 06:58:30;;;;;;;58.77;19.70;;;3.70;99.90;;;;;;5074690;28;20998;-84
2022/11/11 07:00:58;;;;;;;73.57;23.57;;;3.80;99.90;;;;;;5072165;28;21142;-84
2022/11/11 07:03:25;;;;;;;66.70;21.60;;;3.70;99.90;;;;;;5056439;28;20494;-84
2022/11/11 07:05:54;;;;;;;141.23;22.77;;;4.00;99.90;;;;;;5062990;28;20481;-84
2022/11/11 07:08:21;;;;;;;64.57;20.03;;;4.40;99.90;;;;;;5073141;28;20483;-83
2022/11/11 07:10:49;;;;;;;109.33;22.17;;;4.40;99.90;;;;;;5071432;28;20481;-84
2022/11/11 07:13:16;;;;;;;215.77;40.03;;;4.40;99.90;;;;;;5071237;28;20512;-83
2022/11/11 07:15:44;;;;;;;362.73;54.47;;;4.50;99.90;;;;;;5072896;28;20503;-83
2022/11/11 07:18:13;;;;;;;416.37;63.80;;;4.50;99.90;;;;;;5070427;28;20704;-83
2022/11/11 07:20:40;;;;;;;174.03;35.97;;;4.50;99.90;;;;;;5058746;28;20463;-83
2022/11/11 07:23:07;;;;;;;122.30;25.20;;;4.40;99.90;;;;;;5077631;28;20492;-83
2022/11/11 07:25:34;;;;;;;296.57;41.57;;;4.30;99.90;;;;;;5082168;28;20480;-82
2022/11/11 07:28:01;;;;;;;448.80;78.67;;;4.30;99.90;;;;;;5080140;28;21173;-82
2022/11/11 07:30:29;;;;;;;246.30;41.03;;;4.10;99.90;;;;;;5067013;28;20591;-82
2022/11/11 07:32:56;;;;;;;124.27;27.57;;;4.20;99.90;;;;;;5073427;28;20532;-83
2022/11/11 07:35:25;;;;;;;97.53;26.53;;;4.40;99.90;;;;;;5067709;28;20484;-82
2022/11/11 07:37:52;;;;;;;60.90;19.77;;;4.50;99.90;;;;;;5068507;28;20532;-83
2022/11/11 07:40:20;;;;;;;96.17;24.23;;;4.60;99.90;;;;;;5074023;28;20483;-82
2022/11/11 07:42:47;;;;;;;66.97;18.97;;;4.50;99.90;;;;;;5063967;28;20543;-82
2022/11/11 07:45:15;;;;;;;75.77;18.93;;;4.70;99.90;;;;;;5067555;28;20571;-82
2022/11/11 07:47:45;;;;;;;111.77;23.50;;;4.60;99.90;;;;;;5069770;28;20462;-82
2022/11/11 07:50:12;;;;;;;278.47;53.87;;;4.50;99.90;;;;;;5068628;28;21045;-82
2022/11/11 07:52:41;;;;;;;56.73;22.70;;;4.70;99.90;;;;;;5078605;28;20535;-82
2022/11/11 07:55:08;;;;;;;38.73;20.23;;;4.70;99.90;;;;;;5073787;28;20704;-82
2022/11/11 07:57:35;;;;;;;42.50;17.40;;;5.00;99.90;;;;;;5066167;28;20483;-82
2022/11/11 08:00:04;;;;;;;91.60;24.57;;;5.00;99.90;;;;;;5072137;28;20463;-83
2022/11/11 08:02:32;;;;;;;47.53;16.30;;;5.10;99.90;;;;;;5073658;28;20901;-82
2022/11/11 08:04:59;;;;;;;55.53;12.50;;;5.10;99.90;;;;;;5080368;28;20529;-83
2022/11/11 08:07:26;;;;;;;75.93;17.87;;;5.20;99.90;;;;;;5077283;28;20462;-82
2022/11/11 08:09:54;;;;;;;742.40;114.30;;;5.50;99.90;;;;;;5068245;28;20659;-83
2022/11/11 08:15:07;;;;;;;69.80;18.83;;;5.80;99.90;;;;;;5079975;28;20444;-84
2022/11/11 08:17:38;;;;;;;90.43;23.10;;;5.70;99.90;;;;;;5074069;28;20558;-85
2022/11/11 08:20:06;;;;;;;400.53;65.13;;;5.70;99.90;;;;;;5080275;28;20919;-84
2022/11/11 08:22:36;;;;;;;30.23;9.20;;;5.90;99.90;;;;;;5073510;28;20465;-83
2022/11/11 08:25:06;;;;;;;15.07;7.77;;;6.10;99.90;;;;;;5076243;28;20490;-84
2022/11/11 08:27:34;;;;;;;19.47;8.70;;;6.20;99.90;;;;;;5074482;28;20487;-84
2022/11/11 08:30:01;;;;;;;31.20;8.83;;;6.20;99.90;;;;;;5072028;28;20491;-84
2022/11/11 08:32:28;;;;;;;58.63;12.57;;;6.40;99.90;;;;;;5068780;28;20490;-84
2022/11/11 08:34:55;;;;;;;32.60;10.00;;;6.50;99.90;;;;;;5076027;28;20462;-84
2022/11/11 08:37:22;;;;;;;202.33;32.60;;;6.70;99.90;;;;;;5069007;28;20461;-84
2022/11/11 08:39:51;;;;;;;113.27;20.87;;;6.60;99.90;;;;;;5067630;28;20461;-84
2022/11/11 08:42:19;;;;;;;29.10;8.93;;;6.60;99.90;;;;;;5072359;28;20546;-84
2022/11/11 08:44:46;;;;;;;20.00;8.80;;;6.50;99.90;;;;;;5074999;28;20541;-82
2022/11/11 08:47:13;;;;;;;91.77;17.73;;;6.60;99.90;;;;;;5086908;28;20543;-84
2022/11/11 08:49:40;;;;;;;794.70;115.60;;;6.50;99.90;;;;;;5075602;28;20961;-84
2022/11/11 08:52:07;;;;;;;234.87;37.23;;;6.50;99.90;;;;;;5072145;28;21196;-83
2022/11/11 08:54:34;;;;;;;32.20;11.47;;;6.60;99.90;;;;;;5079475;28;20950;-82
2022/11/11 08:57:01;;;;;;;61.10;13.50;;;7.00;99.90;;;;;;5074578;28;20529;-82
2022/11/11 08:59:29;;;;;;;224.60;37.20;;;7.00;99.90;;;;;;5074525;28;20499;-82
2022/11/11 09:01:56;;;;;;;137.97;27.37;;;6.90;99.90;;;;;;5067303;28;20495;-82
2022/11/11 09:04:23;;;;;;;124.80;20.57;;;6.90;99.90;;;;;;5072740;28;20509;-82
2022/11/11 09:06:50;;;;;;;12.33;6.03;;;6.90;99.90;;;;;;5069842;28;20991;-82
2022/11/11 09:09:18;;;;;;;75.30;13.77;;;6.60;99.90;;;;;;5073322;28;20462;-82
2022/11/11 09:11:45;;;;;;;36.90;8.47;;;6.50;99.90;;;;;;5071154;28;20497;-82
2022/11/11 09:14:12;;;;;;;14.50;4.77;;;6.50;99.90;;;;;;5073459;28;20455;-82
2022/11/11 09:16:40;;;;;;;93.10;17.40;;;6.40;99.90;;;;;;5076301;28;20484;-90
2022/11/11 09:19:07;;;;;;;27.63;7.13;;;6.50;99.90;;;;;;5081154;28;20843;-83
2022/11/11 09:21:35;;;;;;;5.87;5.33;;;6.60;99.90;;;;;;5081380;28;20467;-83
2022/11/11 09:24:02;;;;;;;6.90;6.20;;;7.00;99.90;;;;;;5089797;28;20501;-81
2022/11/11 09:26:29;;;;;;;22.40;8.73;;;7.30;99.90;;;;;;5093191;28;20471;-82
2022/11/11 09:28:56;;;;;;;69.87;15.47;;;7.50;99.90;;;;;;5078232;28;20553;-81
2022/11/11 09:31:23;;;;;;;47.40;12.47;;;7.50;99.90;;;;;;5077743;28;20554;-82
2022/11/11 09:33:52;;;;;;;176.30;27.87;;;7.30;99.90;;;;;;5076039;28;20571;-82
2022/11/11 09:36:20;;;;;;;100.47;21.00;;;7.00;99.90;;;;;;5073287;28;21178;-82
2022/11/11 09:38:47;;;;;;;343.70;55.07;;;7.00;99.90;;;;;;5077722;28;20553;-83
2022/11/11 09:41:20;;;;;;;485.40;66.10;;;6.90;99.90;;;;;;5069900;28;20513;-83
2022/11/11 09:43:53;;;;;;;107.27;17.80;;;6.80;99.90;;;;;;5076233;28;20552;-84
2022/11/11 09:46:33;;;;;;;323.17;47.13;;;6.80;99.90;;;;;;5068343;28;20928;-81
2022/11/11 09:49:31;;;;;;;360.03;52.27;;;7.00;99.90;;;;;;5080549;28;20520;-82
2022/11/11 09:52:04;;;;;;;65.33;17.70;;;6.80;99.90;;;;;;5072915;28;20520;-84
2022/11/11 09:54:37;;;;;;;98.57;19.03;;;6.50;99.90;;;;;;5067694;28;20558;-84
2022/11/11 09:57:10;;;;;;;199.27;34.77;;;6.70;99.90;;;;;;5067159;28;20462;-83
2022/11/11 09:59:44;;;;;;;37.97;13.97;;;6.70;99.90;;;;;;5080940;28;20479;-84
2022/11/11 10:02:19;;;;;;;116.20;19.77;;;6.80;99.90;;;;;;5068584;28;20461;-84
2022/11/11 10:04:55;;;;;;;81.63;16.30;;;6.90;99.90;;;;;;5086751;28;20494;-84
2022/11/11 10:07:28;;;;;;;168.80;30.47;;;7.00;99.90;;;;;;5082379;28;20463;-83
2022/11/11 10:10:02;;;;;;;74.83;18.20;;;7.10;99.90;;;;;;5073709;28;20571;-83
2022/11/11 10:12:38;;;;;;;60.30;15.90;;;7.00;99.90;;;;;;5079622;28;20532;-83
2022/11/11 10:15:11;;;;;;;136.10;23.53;;;7.00;99.90;;;;;;5071338;28;20467;-83
2022/11/11 10:17:48;;;;;;;58.77;17.00;;;7.10;99.90;;;;;;5067619;28;20472;-83
2022/11/11 10:20:20;;;;;;;189.87;30.90;;;7.30;99.90;;;;;;5077221;28;20489;-83
2022/11/11 10:22:52;;;;;;;144.93;25.27;;;7.40;99.90;;;;;;5065811;28;20454;-83
2022/11/11 10:25:21;;;;;;;72.87;15.43;;;7.40;99.90;;;;;;5079911;28;20549;-82
2022/11/11 10:27:53;;;;;;;59.23;19.03;;;7.60;99.90;;;;;;5073492;28;20944;-81
2022/11/11 10:30:23;;;;;;;45.23;14.73;;;7.80;99.90;;;;;;5068841;28;20464;-81
2022/11/11 10:32:55;;;;;;;30.40;12.37;;;7.70;99.90;;;;;;5075030;28;20884;-81
2022/11/11 10:35:26;;;;;;;17.10;11.67;;;7.50;99.90;;;;;;5077447;28;20458;-81
2022/11/11 10:38:04;;;;;;;72.27;16.40;;;7.80;99.90;;;;;;5077741;28;20462;-81
2022/11/11 10:40:38;;;;;;;54.93;14.10;;;7.60;99.90;;;;;;5071193;28;20883;-81
2022/11/11 10:43:05;;;;;;;35.43;13.97;;;7.70;99.90;;;;;;5071058;28;20453;-81
2022/11/11 10:45:42;;;;;;;107.60;21.53;;;7.70;99.90;;;;;;5075273;28;20489;-81
2022/11/11 10:48:13;;;;;;;118.77;18.20;;;7.50;99.90;;;;;;5076408;28;20457;-81
2022/11/11 10:50:44;;;;;;;48.93;12.37;;;7.60;99.90;;;;;;5078706;28;20511;-81
2022/11/11 10:53:18;;;;;;;153.63;26.60;;;7.70;99.90;;;;;;5073733;28;20468;-81
2022/11/11 10:55:49;;;;;;;265.00;31.07;;;7.80;99.90;;;;;;5079768;28;20892;-81
2022/11/11 10:58:22;;;;;;;48.03;13.90;;;7.70;99.90;;;;;;5072740;28;20470;-81
2022/11/11 11:00:52;;;;;;;310.23;34.53;;;7.70;99.90;;;;;;5074789;28;20461;-81
2022/11/11 11:03:26;;;;;;;116.97;19.03;;;7.70;99.90;;;;;;5080564;28;20477;-81
2022/11/11 11:06:02;;;;;;;103.67;24.00;;;7.80;99.90;;;;;;5069363;28;20561;-81
2022/11/11 11:08:33;;;;;;;128.43;18.23;;;7.90;99.90;;;;;;5082617;28;20939;-81
2022/11/11 11:11:04;;;;;;;64.47;17.50;;;8.00;99.90;;;;;;5078936;28;20452;-81
2022/11/11 11:13:39;;;;;;;142.97;21.77;;;8.10;99.90;;;;;;5064381;28;20505;-80
2022/11/11 11:16:13;;;;;;;43.83;12.70;;;8.00;99.90;;;;;;5078891;28;20493;-80
2022/11/11 11:18:40;;;;;;;28.10;11.10;;;8.10;99.90;;;;;;5085895;28;20467;-81
2022/11/11 11:21:09;;;;;;;16.30;8.80;;;8.20;99.90;;;;;;5075068;28;20523;-80
2022/11/11 11:23:39;;;;;;;53.07;13.17;;;8.50;99.90;;;;;;5075107;28;20512;-80
2022/11/11 11:26:07;;;;;;;83.43;15.07;;;8.60;99.90;;;;;;5078332;28;20482;-80
2022/11/11 11:28:34;;;;;;;63.13;15.20;;;8.80;99.90;;;;;;5079544;28;20485;-80
2022/11/11 11:31:03;;;;;;;32.33;12.53;;;8.80;99.90;;;;;;5065978;28;20521;-80
2022/11/11 11:33:51;;;;;;;26.23;11.70;;;8.80;99.90;;;;;;5079912;28;20473;-81
2022/11/11 11:36:20;;;;;;;36.47;10.57;;;8.60;99.90;;;;;;5073926;28;20997;-81
2022/11/11 11:38:49;;;;;;;12.27;10.37;;;8.60;99.90;;;;;;5067874;28;20536;-81
2022/11/11 11:41:18;;;;;;;21.60;12.50;;;8.70;99.90;;;;;;5079203;28;20462;-80
2022/11/11 11:43:45;;;;;;;32.37;10.80;;;8.80;99.90;;;;;;5084793;28;20510;-80
2022/11/11 11:46:21;;;;;;;22.60;11.87;;;8.60;99.90;;;;;;5081565;28;21156;-80
2022/11/11 11:49:03;;;;;;;15.40;10.63;;;8.30;99.90;;;;;;5072285;28;20497;-81
2022/11/11 11:51:37;;;;;;;21.80;11.17;;;8.20;99.90;;;;;;5076732;28;20497;-81
2022/11/11 11:54:20;;;;;;;40.40;13.90;;;8.10;99.90;;;;;;5074966;28;20562;-81
2022/11/11 11:56:52;;;;;;;34.43;13.53;;;8.20;99.90;;;;;;5071840;28;20491;-81
2022/11/11 11:59:22;;;;;;;23.13;12.30;;;8.40;99.90;;;;;;5076525;28;20457;-80
2022/11/11 12:01:57;;;;;;;15.03;12.27;;;8.50;99.90;;;;;;5083587;28;21174;-81
2022/11/11 12:05:00;;;;;;;19.23;13.50;;;8.50;99.90;;;;;;5080551;28;20550;-81
2022/11/11 12:07:53;;;;;;;145.07;25.80;;;8.40;99.90;;;;;;5081770;28;21057;-80
2022/11/11 12:10:43;;;;;;;19.40;13.50;;;8.40;99.90;;;;;;5064104;28;20555;-81
2022/11/11 12:13:25;;;;;;;14.23;10.33;;;8.40;99.90;;;;;;5067651;28;20502;-80
2022/11/11 12:16:00;;;;;;;96.77;22.03;;;8.40;99.90;;;;;;5065871;28;20541;-80
2022/11/11 12:18:51;;;;;;;18.17;13.33;;;8.60;99.90;;;;;;5075210;28;20463;-80
2022/11/11 12:21:24;;;;;;;34.43;13.17;;;8.40;99.90;;;;;;5072577;28;20542;-80
2022/11/11 12:24:03;;;;;;;19.13;11.80;;;8.40;99.90;;;;;;5070693;28;20524;-80
2022/11/11 12:26:40;;;;;;;65.23;18.13;;;8.40;99.90;;;;;;5080031;28;20994;-80
2022/11/11 12:29:24;;;;;;;21.33;12.27;;;8.20;99.90;;;;;;5076140;28;20490;-80
2022/11/11 12:32:06;;;;;;;28.40;13.83;;;8.30;99.90;;;;;;5075220;28;20586;-80
2022/11/11 12:34:55;;;;;;;23.30;12.33;;;8.40;99.90;;;;;;5088791;28;20493;-80
2022/11/11 12:37:31;;;;;;;18.03;12.20;;;8.40;99.90;;;;;;5073499;28;20487;-80
2022/11/11 12:40:15;;;;;;;19.10;11.93;;;8.20;99.90;;;;;;5077644;28;20491;-81
2022/11/11 12:42:54;;;;;;;22.97;12.33;;;8.30;99.90;;;;;;5082400;28;20549;-80
2022/11/11 12:45:24;;;;;;;24.67;13.27;;;8.40;99.90;;;;;;5084625;28;20517;-80
2022/11/11 12:48:03;;;;;;;17.73;11.87;;;8.40;99.90;;;;;;5078357;28;20486;-80
2022/11/11 12:50:38;;;;;;;14.27;11.93;;;8.30;99.90;;;;;;5075084;28;21224;-80
2022/11/11 12:53:22;;;;;;;24.53;13.00;;;8.20;99.90;;;;;;5086094;28;20489;-80
2022/11/11 12:56:02;;;;;;;85.13;18.33;;;8.20;99.90;;;;;;5073617;28;20521;-80
2022/11/11 12:58:38;;;;;;;40.70;16.07;;;8.10;99.90;;;;;;5069938;28;20467;-80
2022/11/11 13:01:17;;;;;;;28.03;15.33;;;8.00;99.90;;;;;;5076615;28;20469;-80
2022/11/11 13:04:15;;;;;;;18.53;13.50;;;8.00;99.90;;;;;;5072691;28;20549;-80
2022/11/11 13:07:06;;;;;;;40.57;14.73;;;8.00;99.90;;;;;;5076619;28;20548;-79
2022/11/11 13:09:42;;;;;;;22.20;14.70;;;8.00;99.90;;;;;;5077268;28;20733;-80
2022/11/11 13:12:18;;;;;;;71.23;16.47;;;7.70;99.90;;;;;;5084396;28;20544;-80
2022/11/11 13:14:56;;;;;;;87.93;19.30;;;7.80;99.90;;;;;;5073850;28;20469;-80
2022/11/11 13:17:23;;;;;;;44.63;13.27;;;8.00;99.90;;;;;;5077121;28;20463;-80
2022/11/11 13:19:54;;;;;;;37.33;13.40;;;8.00;99.90;;;;;;5083461;28;20982;-79
2022/11/11 13:22:25;;;;;;;32.17;13.07;;;8.10;99.90;;;;;;5079003;28;20938;-80
2022/11/11 13:24:53;;;;;;;24.93;13.33;;;8.10;99.90;;;;;;5074183;28;20462;-80
2022/11/11 13:27:29;;;;;;;23.13;14.87;;;8.30;99.90;;;;;;5083976;28;20508;-80
2022/11/11 13:30:29;;;;;;;22.17;15.13;;;8.20;99.90;;;;;;5093148;28;20473;-80
2022/11/11 13:33:02;;;;;;;21.07;15.50;;;8.40;99.90;;;;;;5074265;28;20842;-79
2022/11/11 13:35:34;;;;;;;69.70;23.27;;;8.50;99.90;;;;;;5079745;28;21047;-80
2022/11/11 13:38:01;;;;;;;30.43;17.10;;;8.40;99.90;;;;;;5084734;28;20459;-79
2022/11/11 13:40:36;;;;;;;38.80;18.03;;;8.20;99.90;;;;;;5078588;28;20926;-80
2022/11/11 13:43:15;;;;;;;41.93;18.67;;;8.20;99.90;;;;;;5080280;28;20505;-80
2022/11/11 13:45:49;;;;;;;207.13;30.00;;;8.10;99.90;;;;;;5079605;28;20455;-80
2022/11/11 13:48:24;;;;;;;35.37;16.00;;;7.90;99.90;;;;;;5071739;28;20443;-80
2022/11/11 13:50:51;;;;;;;53.43;19.23;;;7.90;99.90;;;;;;5083127;28;20513;-80
2022/11/11 13:53:29;;;;;;;52.17;21.10;;;7.90;99.90;;;;;;5066106;28;20463;-80
2022/11/11 13:56:02;;;;;;;38.07;16.13;;;8.00;99.90;;;;;;5069510;28;20520;-80
2022/11/11 13:58:33;;;;;;;72.20;21.33;;;7.70;99.90;;;;;;5066304;28;20905;-81
2022/11/11 14:01:02;;;;;;;127.07;23.03;;;7.60;99.90;;;;;;5079189;28;20460;-81
2022/11/11 14:03:33;;;;;;;192.10;29.63;;;7.60;99.90;;;;;;5071715;28;20463;-81
2022/11/11 14:06:48;;;;;;;80.43;18.87;;;7.60;99.90;;;;;;5075976;28;20537;-81
2022/11/11 14:09:48;;;;;;;28.87;15.57;;;7.60;99.90;;;;;;5077294;28;20543;-81
2022/11/11 14:12:34;;;;;;;40.03;16.63;;;7.70;99.90;;;;;;5070046;28;20578;-81